Time;durP1;ratioP1;P1;durP2;ratioP2;P2;SDS_P1;SDS_P2;PMS_P1;PMS_P2;Temp;Humidity;BMP_temperature;BMP_pressure;BME280_temperature;BME280_humidity;BME280_pressure;Samples;Min_cycle;Max_cycle;Signal;HPM_P1;HPM_P2
2022/05/10 00:02:16;;;;;;;11.90;8.75;;;13.60;99.90;;;;;;5097472;28;20166;-70
2022/05/10 00:04:48;;;;;;;12.27;9.48;;;13.60;99.90;;;;;;5079300;28;20207;-71
2022/05/10 00:07:14;;;;;;;11.40;8.85;;;13.60;99.90;;;;;;5097587;28;20568;-71
2022/05/10 00:09:40;;;;;;;11.75;8.98;;;13.60;99.90;;;;;;5097463;28;20246;-71
2022/05/10 00:12:06;;;;;;;12.60;8.57;;;13.50;99.90;;;;;;5097245;28;20177;-71
2022/05/10 00:14:32;;;;;;;12.73;9.43;;;13.40;99.90;;;;;;5097128;28;20243;-71
2022/05/10 00:16:57;;;;;;;12.73;9.35;;;13.50;99.90;;;;;;5078732;28;20197;-71
2022/05/10 00:19:27;;;;;;;12.60;9.00;;;13.40;99.90;;;;;;5096903;28;20739;-71
2022/05/10 00:21:53;;;;;;;11.65;8.77;;;13.40;99.90;;;;;;5096995;28;20170;-71
2022/05/10 00:24:19;;;;;;;11.32;8.25;;;13.30;99.90;;;;;;5096753;28;20202;-70
2022/05/10 00:26:45;;;;;;;13.88;9.43;;;13.20;99.90;;;;;;5096465;28;20246;-71
2022/05/10 00:29:10;;;;;;;13.57;8.70;;;13.10;99.90;;;;;;5096725;28;20180;-71
2022/05/10 00:31:36;;;;;;;15.35;8.82;;;13.10;99.90;;;;;;5096859;28;20239;-71
2022/05/10 00:34:03;;;;;;;12.65;8.32;;;13.00;99.90;;;;;;5078499;28;20706;-71
2022/05/10 00:36:30;;;;;;;12.73;9.65;;;13.00;99.90;;;;;;5096569;28;20267;-71
2022/05/10 00:38:55;;;;;;;12.75;9.80;;;13.00;99.90;;;;;;5096453;28;20215;-71
2022/05/10 00:41:42;;;;;;;12.48;10.18;;;13.00;99.90;;;;;;5096628;28;20165;-71
2022/05/10 00:44:19;;;;;;;13.05;9.02;;;12.90;99.90;;;;;;5078546;28;20173;-71
2022/05/10 00:46:58;;;;;;;12.77;10.40;;;12.80;99.90;;;;;;5096645;28;20607;-71
2022/05/10 00:49:51;;;;;;;14.40;9.95;;;12.80;99.90;;;;;;5096371;28;20168;-71
2022/05/10 00:52:25;;;;;;;14.55;10.27;;;12.80;99.90;;;;;;5095572;28;20235;-71
2022/05/10 00:55:07;;;;;;;13.67;9.63;;;12.80;99.90;;;;;;5078394;28;20165;-71
2022/05/10 00:57:56;;;;;;;12.30;9.43;;;12.70;99.90;;;;;;5095656;28;20154;-71
2022/05/10 01:00:28;;;;;;;12.45;8.82;;;12.70;99.90;;;;;;5096521;28;20161;-71
2022/05/10 01:03:00;;;;;;;13.00;8.90;;;12.60;99.90;;;;;;5096420;28;20256;-71
2022/05/10 01:05:36;;;;;;;8.93;8.02;;;12.60;99.90;;;;;;5096103;28;20217;-71
2022/05/10 01:08:23;;;;;;;10.68;7.80;;;12.50;99.90;;;;;;5078263;28;20195;-71
2022/05/10 01:11:07;;;;;;;8.60;7.57;;;12.30;99.90;;;;;;5096598;28;20598;-71
2022/05/10 01:13:57;;;;;;;13.75;7.60;;;12.20;99.90;;;;;;5077545;28;20197;-71
2022/05/10 01:16:24;;;;;;;9.55;7.72;;;12.10;99.90;;;;;;5096185;28;20212;-71
2022/05/10 01:18:52;;;;;;;10.20;8.20;;;12.00;99.90;;;;;;5095837;28;20200;-71
2022/05/10 01:21:41;;;;;;;10.87;8.73;;;12.00;99.90;;;;;;5078155;28;20181;-71
2022/05/10 01:24:29;;;;;;;10.35;7.97;;;11.80;99.90;;;;;;5095927;28;20615;-71
2022/05/10 01:27:15;;;;;;;10.27;8.20;;;11.90;99.90;;;;;;5095579;28;20280;-71
2022/05/10 01:30:07;;;;;;;12.57;8.30;;;12.00;99.90;;;;;;5096149;28;20497;-71
2022/05/10 01:35:57;;;;;;;11.77;7.83;;;12.00;99.90;;;;;;5095806;28;20258;-71
2022/05/10 01:38:36;;;;;;;12.95;8.70;;;12.00;99.90;;;;;;5095963;28;20699;-71
2022/05/10 01:41:35;;;;;;;9.73;8.37;;;12.00;99.90;;;;;;5077357;28;20169;-71
2022/05/10 01:44:09;;;;;;;10.37;8.40;;;12.10;99.90;;;;;;5056283;28;20593;-72
2022/05/10 01:46:35;;;;;;;10.57;8.80;;;12.10;99.90;;;;;;5095978;28;20215;-71
2022/05/10 01:49:23;;;;;;;12.60;8.30;;;12.10;99.90;;;;;;5078072;28;20184;-71
2022/05/10 01:52:18;;;;;;;10.57;8.30;;;12.20;99.90;;;;;;5078460;28;20648;-71
2022/05/10 01:54:47;;;;;;;12.40;7.77;;;12.20;99.90;;;;;;5053470;28;20196;-71
2022/05/10 01:57:15;;;;;;;12.00;8.30;;;12.30;99.90;;;;;;5095673;28;20677;-71
2022/05/10 01:59:53;;;;;;;10.93;8.38;;;12.40;99.90;;;;;;5095945;28;20205;-71
2022/05/10 02:02:23;;;;;;;10.83;8.60;;;12.40;99.90;;;;;;5077495;28;20555;-71
2022/05/10 02:04:53;;;;;;;9.43;7.72;;;12.50;99.90;;;;;;5077025;28;20223;-71
2022/05/10 02:07:23;;;;;;;9.98;8.20;;;12.40;99.90;;;;;;5095420;28;20219;-71
2022/05/10 02:10:06;;;;;;;12.07;8.38;;;12.40;99.90;;;;;;5094498;28;20588;-71
2022/05/10 02:12:39;;;;;;;10.73;8.30;;;12.40;99.90;;;;;;5094609;28;20248;-71
2022/05/10 02:15:25;;;;;;;11.85;9.35;;;12.40;99.90;;;;;;5094766;28;20173;-71
2022/05/10 02:18:00;;;;;;;12.17;10.00;;;12.40;99.90;;;;;;5095217;28;20164;-71
2022/05/10 02:20:29;;;;;;;13.63;9.80;;;12.30;99.90;;;;;;5094998;28;20214;-71
2022/05/10 02:23:23;;;;;;;13.37;9.43;;;12.30;99.90;;;;;;5094644;28;20179;-72
2022/05/10 02:26:01;;;;;;;12.50;9.10;;;12.30;99.90;;;;;;5094882;28;20567;-71
2022/05/10 02:28:45;;;;;;;11.63;9.77;;;12.30;99.90;;;;;;5094456;28;20172;-71
2022/05/10 02:31:19;;;;;;;13.80;10.63;;;12.20;99.90;;;;;;5094637;28;20214;-71
2022/05/10 02:33:48;;;;;;;13.57;10.23;;;12.10;99.90;;;;;;5094927;28;20172;-71
2022/05/10 02:36:15;;;;;;;12.37;10.47;;;12.10;99.90;;;;;;5094675;28;20594;-71
2022/05/10 02:38:41;;;;;;;16.25;10.98;;;12.00;99.90;;;;;;5094541;28;20676;-71
2022/05/10 02:41:17;;;;;;;14.97;11.00;;;12.00;99.90;;;;;;5094752;28;20198;-71
2022/05/10 02:44:00;;;;;;;14.23;10.67;;;12.00;99.90;;;;;;5094161;28;20179;-71
2022/05/10 02:46:26;;;;;;;11.50;9.90;;;11.90;99.90;;;;;;5094370;28;20209;-71
2022/05/10 02:48:52;;;;;;;12.07;10.70;;;11.90;99.90;;;;;;5076216;28;20192;-71
2022/05/10 02:51:18;;;;;;;12.63;10.10;;;11.90;99.90;;;;;;5094532;28;20544;-71
2022/05/10 02:53:45;;;;;;;12.37;10.07;;;11.80;99.90;;;;;;5094941;28;20192;-71
2022/05/10 02:56:14;;;;;;;13.53;10.60;;;11.90;99.90;;;;;;5076325;28;20204;-71
2022/05/10 02:58:54;;;;;;;12.95;10.60;;;11.90;99.90;;;;;;5075908;28;20208;-71
2022/05/10 03:01:47;;;;;;;12.30;9.70;;;11.90;99.90;;;;;;5094345;28;20610;-71
2022/05/10 03:04:13;;;;;;;13.97;11.07;;;11.80;99.90;;;;;;5076227;28;20177;-71
2022/05/10 03:06:40;;;;;;;15.02;10.50;;;11.80;99.90;;;;;;5094404;28;20197;-71
2022/05/10 03:09:06;;;;;;;13.10;10.70;;;11.90;99.90;;;;;;5076056;28;20189;-70
2022/05/10 03:11:33;;;;;;;14.20;10.63;;;11.90;99.90;;;;;;5076436;28;20654;-71
2022/05/10 03:13:59;;;;;;;12.23;10.27;;;11.90;99.90;;;;;;5093800;28;20230;-70
2022/05/10 03:16:25;;;;;;;13.73;10.40;;;11.90;99.90;;;;;;5094231;28;20229;-71
2022/05/10 03:18:51;;;;;;;13.40;9.93;;;11.80;99.90;;;;;;5094095;28;20204;-71
2022/05/10 03:21:18;;;;;;;14.70;10.23;;;11.80;99.90;;;;;;5079357;28;20173;-70
2022/05/10 03:23:43;;;;;;;13.53;9.87;;;11.70;99.90;;;;;;5100827;28;20264;-71
2022/05/10 03:26:11;;;;;;;14.00;10.37;;;11.80;99.90;;;;;;5082733;28;20220;-70
2022/05/10 03:28:37;;;;;;;15.17;10.90;;;11.80;99.90;;;;;;5101316;28;20168;-72
2022/05/10 03:31:05;;;;;;;16.10;11.50;;;11.70;99.90;;;;;;5082806;28;20219;-72
2022/05/10 03:33:35;;;;;;;14.83;11.47;;;11.70;99.90;;;;;;5083186;28;20263;-72
2022/05/10 03:36:00;;;;;;;15.55;12.32;;;11.70;99.90;;;;;;5082672;28;20201;-72
2022/05/10 03:38:26;;;;;;;14.32;10.68;;;11.70;99.90;;;;;;5100785;28;20200;-72
2022/05/10 03:40:52;;;;;;;14.93;11.87;;;11.60;99.90;;;;;;5082993;28;20177;-72
2022/05/10 03:43:18;;;;;;;15.17;11.70;;;11.60;99.90;;;;;;5082479;28;20177;-72
2022/05/10 03:45:44;;;;;;;14.83;11.37;;;11.50;99.90;;;;;;5100676;28;20276;-72
2022/05/10 03:48:09;;;;;;;15.07;11.77;;;11.50;99.90;;;;;;5082727;28;20173;-72
2022/05/10 03:50:35;;;;;;;16.00;10.63;;;11.50;99.90;;;;;;5082781;28;20177;-72
2022/05/10 03:53:01;;;;;;;18.90;11.40;;;11.50;99.90;;;;;;5082952;28;20314;-72
2022/05/10 03:55:28;;;;;;;17.63;11.37;;;11.60;99.90;;;;;;5101038;28;20188;-72
2022/05/10 03:57:55;;;;;;;15.63;10.27;;;11.60;99.90;;;;;;5101065;28;20695;-72
2022/05/10 04:00:27;;;;;;;16.07;10.47;;;11.50;99.90;;;;;;5083071;28;20209;-72
2022/05/10 04:02:55;;;;;;;15.37;10.83;;;11.50;99.90;;;;;;5085618;28;20173;-72
2022/05/10 04:05:23;;;;;;;13.00;10.70;;;11.50;99.90;;;;;;5102626;28;20189;-72
2022/05/10 04:07:49;;;;;;;12.85;10.30;;;11.40;99.90;;;;;;5084016;28;20242;-72
2022/05/10 04:10:15;;;;;;;14.30;10.83;;;11.30;99.90;;;;;;5083912;28;20180;-72
2022/05/10 04:12:41;;;;;;;16.20;10.43;;;11.30;99.90;;;;;;5100997;28;20239;-72
2022/05/10 04:15:11;;;;;;;13.90;10.30;;;11.20;99.90;;;;;;5101168;28;20177;-72
2022/05/10 04:17:37;;;;;;;13.40;10.83;;;11.20;99.90;;;;;;5101393;28;20166;-72
2022/05/10 04:20:06;;;;;;;13.60;10.70;;;11.20;99.90;;;;;;5082488;28;20204;-72
2022/05/10 04:22:32;;;;;;;12.90;10.63;;;11.30;99.90;;;;;;5082454;28;20188;-72
2022/05/10 04:24:58;;;;;;;15.90;11.87;;;11.40;99.90;;;;;;5100707;28;20544;-72
2022/05/10 04:27:24;;;;;;;14.60;11.00;;;11.40;99.90;;;;;;5100560;28;20177;-72
2022/05/10 04:29:49;;;;;;;15.20;10.93;;;11.50;99.90;;;;;;5100695;28;20192;-72
2022/05/10 04:32:15;;;;;;;14.03;11.77;;;11.50;99.90;;;;;;5080984;28;20187;-72
2022/05/10 04:34:41;;;;;;;13.67;10.87;;;11.50;99.90;;;;;;5098139;28;20161;-72
2022/05/10 04:37:06;;;;;;;13.00;11.03;;;11.60;99.90;;;;;;5097485;28;20197;-72
2022/05/10 04:42:16;;;;;;;12.70;10.80;;;11.60;99.90;;;;;;5097639;28;20168;-72
2022/05/10 04:44:42;;;;;;;12.73;10.37;;;11.70;99.90;;;;;;5097620;28;20560;-72
2022/05/10 04:47:08;;;;;;;13.00;11.27;;;11.70;99.90;;;;;;5097238;28;20243;-72
2022/05/10 04:49:34;;;;;;;14.17;10.73;;;11.80;99.90;;;;;;5097289;28;20625;-72
2022/05/10 04:51:59;;;;;;;15.40;11.20;;;11.80;99.90;;;;;;5078920;28;20195;-72
2022/05/10 04:54:25;;;;;;;13.17;10.87;;;11.80;99.90;;;;;;5097000;28;20250;-72
2022/05/10 04:56:51;;;;;;;14.63;11.35;;;11.90;99.90;;;;;;5097041;28;20204;-72
2022/05/10 04:59:16;;;;;;;14.87;11.20;;;11.90;99.90;;;;;;5096643;28;20616;-72
2022/05/10 05:01:42;;;;;;;14.20;10.45;;;11.90;99.90;;;;;;5078707;28;20173;-72
2022/05/10 05:04:08;;;;;;;16.58;11.55;;;12.00;99.90;;;;;;5096807;28;20165;-72
2022/05/10 05:06:35;;;;;;;13.53;10.13;;;12.10;99.90;;;;;;5078603;28;20201;-72
2022/05/10 05:09:01;;;;;;;16.13;10.93;;;12.10;99.90;;;;;;5078271;28;20189;-72
2022/05/10 05:11:27;;;;;;;13.80;10.57;;;12.20;99.90;;;;;;5097157;28;20264;-72
2022/05/10 05:13:53;;;;;;;13.32;10.70;;;12.20;99.90;;;;;;5096236;28;20193;-72
2022/05/10 05:16:19;;;;;;;18.87;11.33;;;12.20;99.90;;;;;;5078414;28;20254;-72
2022/05/10 05:18:45;;;;;;;18.80;12.43;;;12.20;99.90;;;;;;5096540;28;20731;-72
2022/05/10 05:21:11;;;;;;;16.23;11.60;;;12.30;99.90;;;;;;5083119;28;20181;-72
2022/05/10 05:23:37;;;;;;;14.30;10.73;;;12.30;99.90;;;;;;5100647;28;20181;-72
2022/05/10 05:26:03;;;;;;;14.45;10.55;;;12.30;99.90;;;;;;5098090;28;20189;-73
2022/05/10 05:28:29;;;;;;;14.20;10.43;;;12.30;99.90;;;;;;5078518;28;20181;-71
2022/05/10 05:30:56;;;;;;;15.63;10.30;;;12.40;99.90;;;;;;5096266;28;20177;-72
2022/05/10 05:33:22;;;;;;;14.82;10.50;;;12.40;99.90;;;;;;5096085;28;20183;-73
2022/05/10 05:35:48;;;;;;;13.00;9.88;;;12.50;99.90;;;;;;5096184;28;20554;-72
2022/05/10 05:38:14;;;;;;;17.37;10.20;;;12.50;99.90;;;;;;5095901;28;20208;-72
2022/05/10 05:40:40;;;;;;;14.85;10.63;;;12.50;99.90;;;;;;5077804;28;20204;-72
2022/05/10 05:43:06;;;;;;;16.70;10.25;;;12.70;99.90;;;;;;5095526;28;20542;-71
2022/05/10 05:45:32;;;;;;;15.15;11.57;;;12.70;99.90;;;;;;5094538;28;20193;-72
2022/05/10 05:47:57;;;;;;;12.85;10.32;;;12.80;99.90;;;;;;5095755;28;20180;-72
2022/05/10 05:50:25;;;;;;;14.15;10.13;;;12.80;99.90;;;;;;5077587;28;20176;-72
2022/05/10 05:52:51;;;;;;;11.95;9.57;;;12.90;99.90;;;;;;5096168;28;20212;-72
2022/05/10 05:55:18;;;;;;;15.73;10.33;;;13.00;99.90;;;;;;5077644;28;20204;-72
2022/05/10 05:57:45;;;;;;;16.42;10.30;;;13.10;99.90;;;;;;5095872;28;20188;-72
2022/05/10 06:00:15;;;;;;;17.70;10.83;;;13.20;99.90;;;;;;5077597;28;20300;-72
2022/05/10 06:02:42;;;;;;;14.77;9.27;;;13.40;99.90;;;;;;5095673;28;20169;-72
2022/05/10 06:05:08;;;;;;;12.82;9.63;;;13.50;99.90;;;;;;5095894;28;20161;-72
2022/05/10 06:07:33;;;;;;;16.73;9.75;;;13.60;99.90;;;;;;5095421;28;20652;-72
2022/05/10 06:09:59;;;;;;;15.07;9.50;;;13.60;99.90;;;;;;5095549;28;20201;-73
2022/05/10 06:12:25;;;;;;;16.30;9.68;;;13.70;99.90;;;;;;5095623;28;20181;-72
2022/05/10 06:14:51;;;;;;;18.23;10.50;;;13.80;99.90;;;;;;5077627;28;20181;-73
2022/05/10 06:17:17;;;;;;;12.00;9.73;;;13.90;99.90;;;;;;5095316;28;20193;-72
2022/05/10 06:19:44;;;;;;;13.80;9.63;;;14.00;99.90;;;;;;5095177;28;20243;-73
2022/05/10 06:22:12;;;;;;;13.68;10.25;;;14.10;99.90;;;;;;5095133;28;20195;-72
2022/05/10 06:24:38;;;;;;;9.55;8.60;;;14.30;99.90;;;;;;5076707;28;20621;-72
2022/05/10 06:27:07;;;;;;;11.88;8.98;;;14.40;99.90;;;;;;5076658;28;20586;-72
2022/05/10 06:29:34;;;;;;;11.57;8.20;;;14.60;99.90;;;;;;5076069;28;20181;-72
2022/05/10 06:31:59;;;;;;;12.80;9.88;;;14.80;99.90;;;;;;5076262;28;20185;-72
2022/05/10 06:34:25;;;;;;;15.18;10.75;;;14.90;99.90;;;;;;5076151;28;20222;-72
2022/05/10 06:36:51;;;;;;;13.23;8.82;;;15.00;99.90;;;;;;5076096;28;20223;-71
2022/05/10 06:39:17;;;;;;;14.80;10.15;;;15.20;99.90;;;;;;5094371;28;20204;-68
2022/05/10 06:41:42;;;;;;;14.18;10.30;;;15.40;99.90;;;;;;5076306;28;20260;-68
2022/05/10 06:44:08;;;;;;;12.65;9.82;;;15.60;99.90;;;;;;5093767;28;20575;-68
2022/05/10 06:46:35;;;;;;;19.65;9.63;;;15.70;99.90;;;;;;5094408;28;20197;-68
2022/05/10 06:49:04;;;;;;;12.65;9.48;;;15.90;99.90;;;;;;5093904;28;20172;-68
2022/05/10 06:51:30;;;;;;;12.23;8.77;;;16.10;99.90;;;;;;5094063;28;20177;-68
2022/05/10 06:53:56;;;;;;;12.00;9.27;;;16.40;99.90;;;;;;5093894;28;20580;-68
2022/05/10 06:56:22;;;;;;;12.80;9.90;;;16.70;99.90;;;;;;5075224;28;20224;-68
2022/05/10 06:58:48;;;;;;;11.65;8.70;;;16.90;99.90;;;;;;5093724;28;20226;-69
2022/05/10 07:01:14;;;;;;;10.77;9.18;;;17.20;99.90;;;;;;5093692;28;20181;-68
2022/05/10 07:03:49;;;;;;;10.57;8.65;;;17.30;99.90;;;;;;5093690;28;20256;-68
2022/05/10 07:06:20;;;;;;;9.70;7.82;;;17.50;99.90;;;;;;5093998;28;20610;-68
2022/05/10 07:08:45;;;;;;;13.35;7.80;;;17.70;99.90;;;;;;5094123;28;20540;-68
2022/05/10 07:11:11;;;;;;;9.88;7.40;;;17.90;99.90;;;;;;5093572;28;20169;-69
2022/05/10 07:13:38;;;;;;;13.15;8.27;;;18.10;99.90;;;;;;5093759;28;20576;-71
2022/05/10 07:16:04;;;;;;;9.80;7.85;;;18.20;99.90;;;;;;5093802;28;20197;-71
2022/05/10 07:18:30;;;;;;;8.98;7.10;;;18.30;99.90;;;;;;5075717;28;20186;-71
2022/05/10 07:20:56;;;;;;;10.05;7.38;;;18.40;99.90;;;;;;5093940;28;20529;-70
2022/05/10 07:23:29;;;;;;;10.10;6.30;;;18.50;99.90;;;;;;5093852;28;20173;-70
2022/05/10 07:25:55;;;;;;;9.45;7.20;;;18.60;99.90;;;;;;5093750;28;20188;-70
2022/05/10 07:28:21;;;;;;;10.38;7.45;;;18.70;99.90;;;;;;5093735;28;20176;-70
2022/05/10 07:30:47;;;;;;;10.68;7.25;;;18.70;99.90;;;;;;5076001;28;20177;-70
2022/05/10 07:33:15;;;;;;;8.57;6.70;;;18.80;99.90;;;;;;5094379;28;20172;-69
2022/05/10 07:38:25;;;;;;;9.02;7.03;;;19.00;99.90;;;;;;5094023;28;20244;-70
2022/05/10 07:40:51;;;;;;;9.15;6.95;;;19.20;99.90;;;;;;5093437;28;20177;-69
2022/05/10 07:43:19;;;;;;;9.80;7.10;;;19.30;99.90;;;;;;5093405;28;20169;-70
2022/05/10 07:45:48;;;;;;;8.48;6.97;;;19.30;99.90;;;;;;5093590;28;20276;-70
2022/05/10 07:48:14;;;;;;;7.85;6.30;;;19.40;99.90;;;;;;5093907;28;20180;-69
2022/05/10 07:50:40;;;;;;;9.35;6.90;;;19.50;99.90;;;;;;5093496;28;20540;-69
2022/05/10 07:53:09;;;;;;;8.63;6.22;;;19.60;99.90;;;;;;5093412;28;20534;-69
2022/05/10 07:55:36;;;;;;;8.15;6.03;;;19.60;99.90;;;;;;5093354;28;20207;-69
2022/05/10 07:58:06;;;;;;;10.77;6.75;;;19.70;99.90;;;;;;5093207;28;20187;-70
2022/05/10 08:00:37;;;;;;;8.95;6.78;;;19.80;99.90;;;;;;5075199;28;20287;-69
2022/05/10 08:03:17;;;;;;;9.50;6.32;;;19.90;99.90;;;;;;5093491;28;20553;-69
2022/05/10 08:05:44;;;;;;;7.63;6.43;;;20.00;99.90;;;;;;5093519;28;20189;-69
2022/05/10 08:08:11;;;;;;;7.78;5.95;;;20.20;99.90;;;;;;5076598;28;20177;-69
2022/05/10 08:10:39;;;;;;;11.40;6.10;;;20.30;99.90;;;;;;5097205;28;20177;-69
2022/05/10 08:13:12;;;;;;;8.07;5.60;;;20.40;99.90;;;;;;5096810;28;20219;-70
2022/05/10 08:15:38;;;;;;;8.00;6.30;;;20.60;99.90;;;;;;5078947;28;20208;-70
2022/05/10 08:18:06;;;;;;;5.82;5.03;;;20.80;99.90;;;;;;5097263;28;20187;-70
2022/05/10 08:20:31;;;;;;;7.78;5.00;;;21.00;99.90;;;;;;5097063;28;20222;-70
2022/05/10 08:22:57;;;;;;;6.65;5.43;;;21.20;99.90;;;;;;5097615;28;20165;-70
2022/05/10 08:25:23;;;;;;;7.40;5.30;;;21.40;99.90;;;;;;5097430;28;20547;-70
2022/05/10 08:27:49;;;;;;;6.72;4.75;;;21.60;99.90;;;;;;5098053;28;20172;-73
2022/05/10 08:30:15;;;;;;;8.27;5.32;;;21.70;99.90;;;;;;5098449;28;20178;-73
2022/05/10 08:32:42;;;;;;;8.65;4.85;;;21.80;99.90;;;;;;5098360;28;20176;-71
2022/05/10 08:35:08;;;;;;;5.40;4.38;;;21.90;99.90;;;;;;5079519;28;20181;-71
2022/05/10 08:37:36;;;;;;;6.55;4.90;;;22.00;99.90;;;;;;5097044;28;20219;-71
2022/05/10 08:40:04;;;;;;;6.95;4.47;;;22.20;99.90;;;;;;5096933;28;20201;-71
2022/05/10 08:42:33;;;;;;;8.05;5.15;;;22.40;99.90;;;;;;5097491;28;20280;-70
2022/05/10 08:45:07;;;;;;;6.32;4.60;;;22.60;99.90;;;;;;5078524;28;20178;-71
2022/05/10 08:47:36;;;;;;;6.45;5.10;;;22.70;99.90;;;;;;5078484;28;20575;-71
2022/05/10 08:50:08;;;;;;;5.88;4.88;;;22.70;99.90;;;;;;5096787;28;20183;-71
2022/05/10 08:52:40;;;;;;;8.25;4.53;;;22.70;99.90;;;;;;5096604;28;20173;-71
2022/05/10 08:55:08;;;;;;;7.88;4.60;;;22.70;99.90;;;;;;5097031;28;20211;-71
2022/05/10 08:57:52;;;;;;;5.97;4.50;;;22.70;99.90;;;;;;5078562;28;20642;-71
2022/05/10 09:00:40;;;;;;;6.53;4.70;;;22.80;99.90;;;;;;5096418;28;20554;-71
2022/05/10 09:03:42;;;;;;;6.13;4.90;;;22.80;99.90;;;;;;5096931;28;20173;-71
2022/05/10 09:06:35;;;;;;;7.25;4.55;;;22.80;99.90;;;;;;5096693;28;20212;-71
2022/05/10 09:09:16;;;;;;;7.05;4.68;;;22.90;99.90;;;;;;5096618;28;20203;-71
2022/05/10 09:11:51;;;;;;;5.03;4.53;;;23.00;99.90;;;;;;5096905;28;20540;-71
2022/05/10 09:14:22;;;;;;;6.57;4.15;;;23.10;99.90;;;;;;5096264;28;20564;-71
2022/05/10 09:16:48;;;;;;;7.85;4.68;;;23.10;99.90;;;;;;5078118;28;20197;-71
2022/05/10 09:19:13;;;;;;;6.78;4.50;;;22.90;99.90;;;;;;5096872;28;20227;-71
2022/05/10 09:21:49;;;;;;;5.85;4.25;;;23.00;99.90;;;;;;5096536;28;20173;-73
2022/05/10 09:24:53;;;;;;;3.97;3.60;;;23.20;99.90;;;;;;5078239;28;20244;-73
2022/05/10 09:27:24;;;;;;;5.68;4.35;;;23.40;99.90;;;;;;5096227;28;20692;-73
2022/05/10 09:29:51;;;;;;;5.03;3.88;;;23.60;99.90;;;;;;5096079;28;20614;-73
2022/05/10 09:35:11;;;;;;;4.78;4.03;;;23.50;99.90;;;;;;5096910;28;20574;-73
2022/05/10 09:38:08;;;;;;;5.88;4.10;;;23.40;99.90;;;;;;5078961;28;20209;-72
2022/05/10 09:40:46;;;;;;;5.43;4.10;;;23.50;99.90;;;;;;5078612;28;20231;-72
2022/05/10 09:43:25;;;;;;;5.35;3.92;;;23.70;99.90;;;;;;5096779;28;20192;-73
2022/05/10 09:46:21;;;;;;;4.47;3.95;;;23.90;99.90;;;;;;5096011;28;20202;-72
2022/05/10 09:48:50;;;;;;;6.47;4.38;;;23.80;99.90;;;;;;5096067;28;20610;-72
2022/05/10 09:51:32;;;;;;;6.63;4.25;;;23.70;99.90;;;;;;5077786;28;20180;-72
2022/05/10 09:53:59;;;;;;;5.50;4.13;;;23.90;99.90;;;;;;5095863;28;20162;-71
2022/05/10 09:56:34;;;;;;;7.18;4.10;;;24.00;99.90;;;;;;5077457;28;20204;-71
2022/05/10 09:59:02;;;;;;;5.65;3.90;;;24.10;99.90;;;;;;5077226;28;20222;-71
2022/05/10 10:01:38;;;;;;;5.57;4.43;;;24.30;99.90;;;;;;5077319;28;20181;-71
2022/05/10 10:04:31;;;;;;;4.88;4.00;;;24.30;99.90;;;;;;5077285;28;20545;-72
2022/05/10 10:07:03;;;;;;;5.97;3.92;;;24.30;99.90;;;;;;5096009;28;20202;-71
2022/05/10 10:09:31;;;;;;;4.75;3.85;;;24.40;99.90;;;;;;5096517;28;20181;-69
2022/05/10 10:11:57;;;;;;;5.35;3.72;;;24.50;99.90;;;;;;5097383;28;20178;-72
2022/05/10 10:14:41;;;;;;;6.38;4.05;;;24.40;99.90;;;;;;5078796;28;20200;-72
2022/05/10 10:17:25;;;;;;;4.63;3.70;;;24.30;99.90;;;;;;5078264;28;20200;-73
2022/05/10 10:20:24;;;;;;;5.50;4.53;;;24.10;99.90;;;;;;5078003;28;20245;-69
2022/05/10 10:22:53;;;;;;;5.88;4.45;;;23.90;99.90;;;;;;5070075;28;20181;-70
2022/05/10 10:25:32;;;;;;;5.35;4.25;;;23.90;99.90;;;;;;5096199;28;20208;-73
2022/05/10 10:28:15;;;;;;;5.95;4.05;;;24.00;99.90;;;;;;5095435;28;20153;-69
2022/05/10 10:30:53;;;;;;;6.57;4.47;;;24.30;99.90;;;;;;5076240;28;20169;-75
2022/05/10 10:33:43;;;;;;;5.15;3.72;;;24.70;99.90;;;;;;5098950;28;20522;-76
2022/05/10 10:36:18;;;;;;;10.82;4.60;;;25.10;99.90;;;;;;5096568;28;20565;-75
2022/05/10 10:38:56;;;;;;;7.45;4.05;;;25.10;99.90;;;;;;5077004;28;20549;-74
2022/05/10 10:41:39;;;;;;;7.47;4.63;;;25.20;99.90;;;;;;5095236;28;20662;-74
2022/05/10 10:44:13;;;;;;;7.72;4.40;;;25.00;99.90;;;;;;5077129;28;20616;-73
2022/05/10 10:46:50;;;;;;;9.93;4.15;;;24.90;99.90;;;;;;5077213;28;20632;-70
2022/05/10 10:49:27;;;;;;;7.38;4.22;;;24.90;99.90;;;;;;5077562;28;20218;-71
2022/05/10 10:51:53;;;;;;;9.07;5.03;;;24.80;99.90;;;;;;5095729;28;20674;-73
2022/05/10 10:54:25;;;;;;;5.63;3.90;;;24.90;99.90;;;;;;5094976;28;20177;-76
2022/05/10 10:57:02;;;;;;;7.20;4.30;;;25.00;99.90;;;;;;5094789;28;20227;-74
2022/05/10 10:59:48;;;;;;;4.20;3.67;;;24.90;99.90;;;;;;5094074;28;20263;-74
2022/05/10 11:02:32;;;;;;;6.32;3.95;;;24.90;99.90;;;;;;5094298;28;20191;-75
2022/05/10 11:05:12;;;;;;;7.50;4.30;;;25.00;98.60;;;;;;5093931;28;20197;-73
2022/05/10 11:07:50;;;;;;;4.85;3.40;;;25.20;99.00;;;;;;5093890;28;20545;-73
2022/05/10 11:10:31;;;;;;;7.30;4.75;;;25.40;98.50;;;;;;5094156;28;20636;-72
2022/05/10 11:13:13;;;;;;;4.88;3.75;;;25.30;98.20;;;;;;5075695;28;20192;-73
2022/05/10 11:15:41;;;;;;;5.80;3.75;;;25.60;99.00;;;;;;5093810;28;20197;-74
2022/05/10 11:18:31;;;;;;;6.00;4.10;;;25.90;99.90;;;;;;5075794;28;20267;-74
2022/05/10 11:21:23;;;;;;;5.93;4.45;;;26.00;99.10;;;;;;5093783;28;20226;-74
2022/05/10 11:24:21;;;;;;;6.82;4.03;;;25.60;97.90;;;;;;5093732;28;20610;-74
2022/05/10 11:27:05;;;;;;;5.90;4.22;;;25.40;97.70;;;;;;5093730;28;20234;-73
2022/05/10 11:29:42;;;;;;;7.22;4.55;;;25.10;98.20;;;;;;5093686;28;20696;-74
2022/05/10 11:32:17;;;;;;;6.55;5.05;;;25.20;99.50;;;;;;5093915;28;20173;-74
2022/05/10 11:35:05;;;;;;;4.80;4.00;;;25.00;99.20;;;;;;5075527;28;20200;-74
2022/05/10 11:37:54;;;;;;;7.43;4.43;;;25.10;99.90;;;;;;5093945;28;20157;-73
2022/05/10 11:41:03;;;;;;;7.47;4.75;;;25.10;99.90;;;;;;5093156;28;20216;-74
2022/05/10 11:43:46;;;;;;;6.72;4.30;;;25.00;99.40;;;;;;5097935;28;20240;-74
2022/05/10 11:46:50;;;;;;;5.95;4.78;;;25.10;99.40;;;;;;5098242;28;20196;-74
2022/05/10 11:49:35;;;;;;;5.75;4.35;;;25.20;99.90;;;;;;5096951;28;20645;-74
2022/05/10 11:52:20;;;;;;;5.45;4.50;;;25.20;99.90;;;;;;5098003;28;20164;-74
2022/05/10 11:54:56;;;;;;;6.97;4.38;;;25.10;99.90;;;;;;5079335;28;20318;-75
2022/05/10 11:57:23;;;;;;;8.00;4.85;;;25.20;99.90;;;;;;5097386;28;20286;-73
2022/05/10 11:59:49;;;;;;;8.55;4.50;;;25.00;99.70;;;;;;5097373;28;20197;-74
2022/05/10 12:02:29;;;;;;;10.07;5.28;;;24.90;99.90;;;;;;5097535;28;20180;-74
2022/05/10 12:05:10;;;;;;;7.55;4.47;;;24.80;99.90;;;;;;5097199;28;20173;-74
2022/05/10 12:08:01;;;;;;;7.43;4.63;;;24.60;99.90;;;;;;5097320;28;20233;-73
2022/05/10 12:10:40;;;;;;;8.13;4.50;;;24.50;99.90;;;;;;5097590;28;20162;-71
2022/05/10 12:13:10;;;;;;;6.82;4.70;;;24.40;99.90;;;;;;5097359;28;20564;-71
2022/05/10 12:21:30;;;;;;;6.47;4.30;;;24.80;99.90;;;;;;5096805;28;20168;-74
2022/05/10 12:24:21;;;;;;;4.80;3.78;;;25.20;99.90;;;;;;5096973;28;20185;-74
2022/05/10 12:26:48;;;;;;;5.13;4.40;;;25.50;99.90;;;;;;5096764;28;20189;-73
2022/05/10 12:29:30;;;;;;;8.52;4.60;;;25.50;99.90;;;;;;5078422;28;20642;-74
2022/05/10 12:32:34;;;;;;;6.53;4.68;;;25.30;99.90;;;;;;5078744;28;20184;-73
2022/05/10 12:35:02;;;;;;;7.97;4.80;;;25.20;99.90;;;;;;5073779;28;20185;-74
2022/05/10 12:37:28;;;;;;;7.90;4.55;;;25.00;99.90;;;;;;5096992;28;20216;-71
2022/05/10 12:40:08;;;;;;;9.32;4.05;;;25.20;99.90;;;;;;5096945;28;20236;-71
2022/05/10 12:43:04;;;;;;;9.88;4.53;;;25.20;99.90;;;;;;5078820;28;20772;-71
2022/05/10 12:45:42;;;;;;;7.10;4.25;;;25.30;99.50;;;;;;5096349;28;20203;-73
2022/05/10 12:48:08;;;;;;;7.45;3.95;;;25.40;98.50;;;;;;5078619;28;20238;-74
2022/05/10 12:51:00;;;;;;;9.95;4.03;;;25.90;99.00;;;;;;5078631;28;20633;-74
2022/05/10 12:53:48;;;;;;;8.25;4.03;;;26.70;98.30;;;;;;5040017;28;20238;-74
2022/05/10 12:56:20;;;;;;;6.25;3.50;;;26.80;96.20;;;;;;5096699;28;20782;-75
2022/05/10 12:58:53;;;;;;;4.68;3.47;;;27.20;98.30;;;;;;5096254;28;20280;-74
2022/05/10 13:01:22;;;;;;;9.25;4.55;;;27.00;94.90;;;;;;5078414;28;20254;-74
2022/05/10 13:04:16;;;;;;;7.60;3.72;;;26.90;94.90;;;;;;5078200;28;20556;-74
2022/05/10 13:06:57;;;;;;;6.03;3.67;;;26.70;94.90;;;;;;5086240;28;20211;-74
2022/05/10 13:09:25;;;;;;;5.05;3.50;;;26.70;95.50;;;;;;5096475;28;20209;-74
2022/05/10 13:11:59;;;;;;;5.50;3.97;;;27.50;95.50;;;;;;5096171;28;20176;-74
2022/05/10 13:14:28;;;;;;;8.32;3.45;;;27.30;93.80;;;;;;5095899;28;20242;-74
2022/05/10 13:16:54;;;;;;;6.03;4.13;;;26.80;94.10;;;;;;5096788;28;20557;-74
2022/05/10 13:19:23;;;;;;;7.75;3.83;;;26.60;93.70;;;;;;5096096;28;20197;-74
2022/05/10 13:21:49;;;;;;;5.57;3.47;;;26.60;95.50;;;;;;5096153;28;20169;-74
2022/05/10 13:24:17;;;;;;;6.00;3.88;;;26.60;94.60;;;;;;5096030;28;20176;-74